Aérodrome :
LOGIN :

S'inscrire | Disclaimer

   EN    FR    IT 

 










Légende :    VFR   VFR Marginal   IFR   IFR Intensif   IFR Très Intensif
Visi : 
Plafond : 
>= 8 km
>= 3000ft
5 à 8 km
1000 à 3000 ft
1500m à 5 km
500 à 1000 ft
800 à 1500m
200 à 500 ft
< 800m
< 200 ft
Symboles :   Orages  Brouillard  Fortes neiges  Fortes précipitations  Vent > 20 kt
SIGMETs :   Divers  Orages  Givrage  Turbulence  Onde Orograph.  Cendres Volcan.






- Altitude de l'aérodrome : 1106 ft


LFSO - Nancy / Ochey

DERNIER METAR :
  • 230830Z AUTO 23013KT 9999 BKN025 BKN032 OVC038 20/15 Q1020 TEMPO SCT010 BKN013 FEW025TCU

METARs EXPIRÉS :
  • 230800Z AUTO 23014KT 9999 SCT022 BKN039 OVC052 20/15 Q1020 TEMPO 29010G20KT SCT010 BKN013 FEW025TCU
  • 230730Z AUTO 22012KT 9999 BKN018 BKN024 BKN054 20/15 Q1021 TEMPO 29010G20KT SCT010 BKN013 FEW025TCU
  • 230700Z AUTO 22011KT 9999 SCT016 BKN043 BKN052 19/15 Q1021 NOSIG
  • 230630Z AUTO 20008KT 9999 BKN046 19/16 Q1021 NOSIG
  • 230600Z AUTO 22008KT 9999 FEW035 OVC047 18/15 Q1021 NOSIG
  • 230530Z AUTO 22007KT 9999 OVC044 17/15 Q1021 NOSIG
  • 230500Z AUTO 21007KT 9999 OVC044 17/15 Q1021 NOSIG
  • 230430Z AUTO 22006KT 9999 OVC046 17/14 Q1021
  • 230400Z AUTO 21007KT 9999 OVC045 17/14 Q1021

TAF TAF LFSO
Valide du 23 à 09h jusqu'au 24 à 09h UTC


230800Z 2309/2409 23015KT 9999 BKN020 OVC030
TEMPO 2309/2318 -SHRA SCT010 BKN013 FEW025TCU
BECMG 2318/2319 29008KT
TEMPO 2403/2407 BKN005
BECMG 2407/2409 FEW018



MET'MAP, la Météo Aéronautique d'un coup d'oeil ! - Copyright ORBIFLY Décembre 2007 - Disclaimer

ORBIFLY MET'MAP TEAM :

Programmation & Développement : Alexandra Zaïnal
Sur une idée originale de : Baudouin d'Aumeries
Soutien technique & logistique : Manuel Goepfert
Assistance : Marc-Olivier Méhu




SOURCES & CREDITS :

   NOAA